createdAt,value
2022-09-07T00:00:58.033Z,20.61
2022-09-07T00:04:25.210Z,20.45
2022-09-07T00:07:52.094Z,20.45
2022-09-07T00:11:20.482Z,20.47
2022-09-07T00:14:47.217Z,20.36
2022-09-07T00:18:15.208Z,20.32
2022-09-07T00:21:42.262Z,20.42
2022-09-07T00:25:09.459Z,20.52
2022-09-07T00:28:35.025Z,20.36
2022-09-07T00:32:02.411Z,20.43
2022-09-07T00:35:22.979Z,20.52
2022-09-07T00:38:38.716Z,20.45
2022-09-07T00:42:06.152Z,20.46
2022-09-07T00:45:47.952Z,20.38
2022-09-07T00:49:16.860Z,20.39
2022-09-07T00:52:38.561Z,20.46
2022-09-07T00:55:46.410Z,20.56
2022-09-07T00:59:13.028Z,20.71
2022-09-07T01:02:40.913Z,20.90
2022-09-07T01:06:10.517Z,21.04
2022-09-07T01:09:31.855Z,21.24
2022-09-07T01:12:58.322Z,21.10
2022-09-07T01:16:36.730Z,21.41
2022-09-07T01:20:06.025Z,21.74
2022-09-07T01:23:35.733Z,21.91
2022-09-07T01:27:01.302Z,22.21
2022-09-07T01:30:31.050Z,22.31
2022-09-07T01:33:53.591Z,22.50
2022-09-07T01:37:32.569Z,22.76
2022-09-07T01:41:02.853Z,22.79
2022-09-07T01:44:46.208Z,23.10
2022-09-07T01:48:29.013Z,23.00
2022-09-07T01:51:56.082Z,23.30
2022-09-07T01:55:25.923Z,23.36
2022-09-07T01:58:53.041Z,23.57
2022-09-07T02:02:23.134Z,24.05
2022-09-07T02:05:49.735Z,24.28
2022-09-07T02:09:24.030Z,24.50
2022-09-07T02:12:31.048Z,24.45
2022-09-07T02:15:58.792Z,24.92
2022-09-07T02:19:15.335Z,25.77
2022-09-07T02:22:40.925Z,25.99
2022-09-07T02:26:03.508Z,26.45
2022-09-07T02:29:34.035Z,26.64
2022-09-07T02:33:03.580Z,27.12
2022-09-07T02:36:21.735Z,27.44
2022-09-07T02:39:48.488Z,27.66
2022-09-07T02:43:16.212Z,27.80
2022-09-07T02:46:36.102Z,28.08
2022-09-07T02:50:20.639Z,28.08
2022-09-07T02:53:57.618Z,28.27
2022-09-07T02:57:37.139Z,28.16
2022-09-07T03:01:16.293Z,28.04
2022-09-07T03:05:00.212Z,28.01
2022-09-07T03:08:26.692Z,28.09
2022-09-07T03:11:55.524Z,28.03
2022-09-07T03:15:22.594Z,28.12
2022-09-07T03:18:50.253Z,28.05
2022-09-07T03:22:17.402Z,28.11
2022-09-07T03:25:44.445Z,28.17
2022-09-07T03:29:11.100Z,28.12
2022-09-07T03:32:38.752Z,28.15
2022-09-07T03:36:05.718Z,28.34
2022-09-07T03:39:32.980Z,28.55
2022-09-07T03:42:59.614Z,28.64
2022-09-07T03:46:27.146Z,28.46
2022-09-07T03:49:57.925Z,28.55
2022-09-07T03:53:25.471Z,28.75
2022-09-07T03:57:01.434Z,28.78
2022-09-07T04:00:28.692Z,28.96
2022-09-07T04:03:59.966Z,28.97
2022-09-07T04:07:03.343Z,28.92
2022-09-07T04:10:30.841Z,29.11
2022-09-07T04:13:47.469Z,29.30
2022-09-07T04:17:14.491Z,29.52
2022-09-07T04:20:41.057Z,29.86
2022-09-07T04:24:12.188Z,29.96
2022-09-07T04:27:39.373Z,30.07
2022-09-07T04:31:07.232Z,30.26
2022-09-07T04:34:35.931Z,30.24
2022-09-07T04:37:35.807Z,30.36
2022-09-07T04:40:55.901Z,30.35
2022-09-07T04:44:23.181Z,30.48
2022-09-07T04:47:32.448Z,30.81
2022-09-07T04:50:52.243Z,31.01
2022-09-07T04:54:19.366Z,31.55
2022-09-07T04:57:39.562Z,31.75
2022-09-07T05:01:06.498Z,32.01
2022-09-07T05:04:28.354Z,32.08
2022-09-07T05:07:50.752Z,32.26
2022-09-07T05:11:17.427Z,32.55
2022-09-07T05:14:44.313Z,32.64
2022-09-07T05:18:10.929Z,32.84
2022-09-07T05:21:37.704Z,33.05
2022-09-07T05:25:04.458Z,33.27
2022-09-07T05:28:30.195Z,33.50
2022-09-07T05:31:50.235Z,33.60
2022-09-07T05:35:17.305Z,33.85
2022-09-07T05:38:43.802Z,34.05
2022-09-07T05:42:16.427Z,34.20
2022-09-07T05:45:25.155Z,34.52
2022-09-07T05:48:32.110Z,34.64
2022-09-07T05:51:58.782Z,34.87
2022-09-07T05:55:32.199Z,35.17
2022-09-07T05:58:59.313Z,35.45
2022-09-07T06:02:25.874Z,35.50
2022-09-07T06:05:51.670Z,35.62
2022-09-07T06:09:16.527Z,36.14
2022-09-07T06:12:37.434Z,36.08
2022-09-07T06:16:03.953Z,36.40
2022-09-07T06:19:33.675Z,36.49
2022-09-07T06:23:00.147Z,36.83
2022-09-07T06:26:29.939Z,37.18
2022-09-07T06:29:57.097Z,37.36
2022-09-07T06:33:25.858Z,37.57
2022-09-07T06:37:01.616Z,37.65
2022-09-07T06:40:28.321Z,38.02
2022-09-07T06:43:47.672Z,38.08
2022-09-07T06:47:14.074Z,38.47
2022-09-07T06:50:40.850Z,38.56
2022-09-07T06:57:54.611Z,39.13
2022-09-07T07:01:25.704Z,39.49
2022-09-07T07:04:44.444Z,39.68
2022-09-07T07:08:14.680Z,39.97
2022-09-07T07:11:44.864Z,39.96
2022-09-07T07:15:12.220Z,40.11
2022-09-07T07:18:32.238Z,40.36
2022-09-07T07:22:14.436Z,40.60
2022-09-07T07:25:47.018Z,40.96
2022-09-07T07:29:07.240Z,41.22
2022-09-07T07:32:33.732Z,41.46
2022-09-07T07:36:00.500Z,41.61
2022-09-07T07:43:05.702Z,41.88
2022-09-07T07:46:34.252Z,41.96
2022-09-07T07:53:42.924Z,42.28
2022-09-07T07:56:59.835Z,42.33
2022-09-07T08:00:37.675Z,42.46
2022-09-07T08:03:58.639Z,42.59
2022-09-07T08:07:26.111Z,42.62
2022-09-07T08:10:52.502Z,42.76
2022-09-07T08:14:19.282Z,43.03
2022-09-07T08:17:45.692Z,43.19
2022-09-07T08:21:05.605Z,43.30
2022-09-07T08:24:23.828Z,43.42
2022-09-07T08:27:50.510Z,43.67
2022-09-07T08:31:17.038Z,43.74
2022-09-07T08:34:49.051Z,44.14
2022-09-07T08:38:20.495Z,44.17
2022-09-07T08:41:52.630Z,44.36
2022-09-07T08:45:19.370Z,44.53
2022-09-07T08:48:54.662Z,44.73
2022-09-07T08:52:24.229Z,44.87
2022-09-07T08:56:09.251Z,44.96
2022-09-07T08:59:54.502Z,45.21
2022-09-07T09:03:33.330Z,45.44
2022-09-07T09:07:04.207Z,45.61
2022-09-07T09:10:38.730Z,45.98
2022-09-07T09:14:10.757Z,46.30
2022-09-07T09:17:41.267Z,46.59
2022-09-07T09:21:26.424Z,46.63
2022-09-07T09:24:56.423Z,46.93
2022-09-07T09:28:26.600Z,47.13
2022-09-07T09:31:56.052Z,47.38
2022-09-07T09:35:23.518Z,47.57
2022-09-07T09:38:41.055Z,47.72
2022-09-07T09:42:08.113Z,47.85
2022-09-07T09:45:29.062Z,47.96
2022-09-07T09:49:00.894Z,48.09
2022-09-07T09:52:32.042Z,48.38
2022-09-07T09:56:06.488Z,48.52
2022-09-07T10:04:06.269Z,48.65
2022-09-07T10:07:17.036Z,48.82
2022-09-07T10:10:46.703Z,49.03
2022-09-07T10:14:13.318Z,49.04
2022-09-07T10:17:44.698Z,49.20
2022-09-07T10:21:16.939Z,49.33
2022-09-07T10:24:36.640Z,49.43
2022-09-07T10:28:12.810Z,49.53
2022-09-07T10:31:45.875Z,49.67
2022-09-07T10:35:24.246Z,49.82
2022-09-07T10:39:03.641Z,50.00
2022-09-07T10:42:31.921Z,50.15
2022-09-07T10:50:22.120Z,50.51
2022-09-07T10:58:07.525Z,50.85
2022-09-07T11:01:45.941Z,50.96
2022-09-07T11:05:18.561Z,51.06
2022-09-07T11:09:15.729Z,51.03
2022-09-07T11:12:28.610Z,51.22
2022-09-07T11:15:29.833Z,51.17
2022-09-07T11:19:35.165Z,51.25
2022-09-07T11:22:37.351Z,51.33
2022-09-07T11:26:20.493Z,51.40
2022-09-07T11:29:59.222Z,51.47
2022-09-07T11:33:31.843Z,51.44
2022-09-07T11:37:12.970Z,51.65
2022-09-07T11:40:32.415Z,51.86
2022-09-07T11:44:03.244Z,52.20
2022-09-07T11:47:31.747Z,51.87
2022-09-07T11:51:04.899Z,51.80
2022-09-07T11:54:34.626Z,51.83
2022-09-07T11:58:16.194Z,51.76
2022-09-07T12:02:04.682Z,51.87
2022-09-07T12:05:44.697Z,51.77
2022-09-07T12:09:16.061Z,51.79
2022-09-07T12:13:06.528Z,51.93
2022-09-07T12:16:58.430Z,51.87
2022-09-07T12:20:25.749Z,51.93
2022-09-07T12:23:59.316Z,51.95
2022-09-07T12:27:16.127Z,52.07
2022-09-07T12:30:33.174Z,52.18
2022-09-07T12:34:05.700Z,52.28
2022-09-07T12:37:33.302Z,52.48
2022-09-07T12:41:10.088Z,52.66
2022-09-07T12:44:47.689Z,52.88
2022-09-07T12:48:13.362Z,52.93
2022-09-07T12:52:09.038Z,53.11
2022-09-07T12:59:32.710Z,53.59
2022-09-07T13:02:59.033Z,53.82
2022-09-07T13:10:20.672Z,54.25
2022-09-07T13:14:08.897Z,54.53
2022-09-07T13:17:35.012Z,54.66
2022-09-07T13:21:01.946Z,54.75
2022-09-07T13:28:15.242Z,54.95
2022-09-07T13:31:40.115Z,55.01
2022-09-07T13:35:15.167Z,55.13
2022-09-07T13:38:58.222Z,55.24
2022-09-07T13:42:31.650Z,55.40
2022-09-07T13:46:11.022Z,55.57
2022-09-07T13:49:38.679Z,55.66
2022-09-07T13:53:13.968Z,55.71
2022-09-07T13:56:44.128Z,55.77
2022-09-07T14:00:16.058Z,55.75
2022-09-07T14:03:42.877Z,55.87
2022-09-07T14:07:17.619Z,55.84
2022-09-07T14:10:39.385Z,55.83
2022-09-07T14:14:09.728Z,55.72
2022-09-07T14:17:39.634Z,54.95
2022-09-07T14:21:06.313Z,54.86
2022-09-07T14:24:33.509Z,54.96
2022-09-07T14:28:04.811Z,54.98
2022-09-07T14:31:32.526Z,55.25
2022-09-07T14:34:36.805Z,54.16
2022-09-07T14:38:05.743Z,53.07
2022-09-07T14:41:32.411Z,52.79
2022-09-07T14:45:14.178Z,52.97
2022-09-07T14:48:42.280Z,53.73
2022-09-07T14:52:09.856Z,53.49
2022-09-07T14:55:37.098Z,51.83
2022-09-07T14:59:16.210Z,51.16
2022-09-07T15:02:34.151Z,49.83
2022-09-07T15:07:01.057Z,48.85
2022-09-07T15:10:03.504Z,46.24
2022-09-07T15:13:39.518Z,46.08
2022-09-07T15:20:12.055Z,45.82
2022-09-07T15:23:23.163Z,45.84
2022-09-07T15:27:06.215Z,44.35
2022-09-07T15:30:29.791Z,43.45
2022-09-07T15:34:05.515Z,42.90
2022-09-07T15:41:27.481Z,40.68
2022-09-07T15:44:55.159Z,39.15
2022-09-07T15:48:25.226Z,39.49
2022-09-07T15:55:25.283Z,38.65
2022-09-07T15:58:44.626Z,37.95
2022-09-07T16:01:51.590Z,37.37
2022-09-07T16:05:19.123Z,36.89
2022-09-07T16:08:45.786Z,36.14
2022-09-07T16:16:06.078Z,35.21
2022-09-07T16:19:15.975Z,35.04
2022-09-07T16:26:15.266Z,34.43
2022-09-07T16:29:42.656Z,34.29
2022-09-07T16:33:10.968Z,34.31
2022-09-07T16:36:46.711Z,34.08
2022-09-07T16:40:13.908Z,33.98
2022-09-07T16:47:20.340Z,33.44
2022-09-07T16:50:46.992Z,33.28
2022-09-07T16:54:13.732Z,33.09
2022-09-07T17:01:28.172Z,32.89
2022-09-07T17:04:54.568Z,32.80
2022-09-07T17:08:21.298Z,32.60
2022-09-07T17:11:48.072Z,32.45
2022-09-07T17:15:21.598Z,32.37
2022-09-07T17:22:14.138Z,32.21
2022-09-07T17:25:42.178Z,32.57
2022-09-07T17:29:10.452Z,32.74
2022-09-07T17:32:37.834Z,32.98
2022-09-07T17:36:04.925Z,32.72
2022-09-07T17:39:32.496Z,32.79
2022-09-07T17:46:16.410Z,32.21
2022-09-07T17:49:20.096Z,32.22
2022-09-07T17:52:27.089Z,32.32
2022-09-07T17:55:53.692Z,31.78
2022-09-07T18:03:00.845Z,31.66
2022-09-07T18:06:25.373Z,31.31
2022-09-07T18:09:52.014Z,31.03
2022-09-07T18:13:23.436Z,30.99
2022-09-07T18:16:14.993Z,30.77
2022-09-07T18:19:41.778Z,30.76
2022-09-07T18:23:10.391Z,30.31
2022-09-07T18:26:18.414Z,30.73
2022-09-07T18:29:33.493Z,31.09
2022-09-07T18:33:01.545Z,31.14
2022-09-07T18:36:29.108Z,30.61
2022-09-07T18:39:56.934Z,30.42
2022-09-07T18:43:23.571Z,30.14
2022-09-07T18:46:52.187Z,30.03
2022-09-07T18:50:18.696Z,29.57
2022-09-07T18:53:47.090Z,28.97
2022-09-07T18:57:00.730Z,28.62
2022-09-07T19:00:29.484Z,28.14
2022-09-07T19:03:56.422Z,28.29
2022-09-07T19:07:27.508Z,28.42
2022-09-07T19:10:57.080Z,28.59
2022-09-07T19:14:23.747Z,28.49
2022-09-07T19:17:40.748Z,28.98
2022-09-07T19:21:08.341Z,28.53
2022-09-07T19:24:36.355Z,28.17
2022-09-07T19:28:05.191Z,26.99
2022-09-07T19:31:32.822Z,27.14
2022-09-07T19:35:02.472Z,26.38
2022-09-07T19:38:30.423Z,26.04
2022-09-07T19:41:52.016Z,26.13
2022-09-07T19:45:19.152Z,25.72
2022-09-07T19:48:25.834Z,25.92
2022-09-07T19:51:36.691Z,25.45
2022-09-07T19:55:03.812Z,25.06
2022-09-07T19:58:30.683Z,25.08
2022-09-07T20:01:57.456Z,24.32
2022-09-07T20:05:23.917Z,24.28
2022-09-07T20:08:50.984Z,24.09
2022-09-07T20:12:07.723Z,24.16
2022-09-07T20:15:34.728Z,23.84
2022-09-07T20:19:02.774Z,24.18
2022-09-07T20:22:32.599Z,24.53
2022-09-07T20:25:59.177Z,24.67
2022-09-07T20:32:53.869Z,24.69
2022-09-07T20:36:20.634Z,24.27
2022-09-07T20:39:47.650Z,24.24
2022-09-07T20:43:16.237Z,24.39
2022-09-07T20:46:43.563Z,24.79
2022-09-07T20:50:09.142Z,25.36
2022-09-07T20:53:29.830Z,25.47
2022-09-07T20:57:04.531Z,25.81
2022-09-07T21:00:31.588Z,24.85
2022-09-07T21:03:43.253Z,25.09
2022-09-07T21:07:13.036Z,25.39
2022-09-07T21:10:40.135Z,25.18
2022-09-07T21:14:06.568Z,25.15
2022-09-07T21:17:33.610Z,25.33
2022-09-07T21:21:18.719Z,25.47
2022-09-07T21:24:31.839Z,25.65
2022-09-07T21:27:40.725Z,25.62
2022-09-07T21:31:07.633Z,25.48
2022-09-07T21:34:36.562Z,25.72
2022-09-07T21:37:55.710Z,25.37
2022-09-07T21:41:23.515Z,25.27
2022-09-07T21:44:38.146Z,25.62
2022-09-07T21:47:58.695Z,25.58
2022-09-07T21:51:25.417Z,25.59
2022-09-07T21:54:55.856Z,25.71
2022-09-07T21:58:22.621Z,25.42
2022-09-07T22:01:58.066Z,25.15
2022-09-07T22:05:24.691Z,25.44
2022-09-07T22:08:51.458Z,25.06
2022-09-07T22:12:18.545Z,25.45
2022-09-07T22:15:48.019Z,25.56
2022-09-07T22:19:15.862Z,25.67
2022-09-07T22:22:44.340Z,25.85
2022-09-07T22:26:10.948Z,25.81
2022-09-07T22:29:37.392Z,26.26
2022-09-07T22:32:36.921Z,25.95
2022-09-07T22:36:06.579Z,25.81
2022-09-07T22:39:35.887Z,25.85
2022-09-07T22:43:03.743Z,26.06
2022-09-07T22:46:31.670Z,26.01
2022-09-07T22:49:58.786Z,26.79
2022-09-07T22:53:20.031Z,27.33
2022-09-07T22:56:55.945Z,27.89
2022-09-07T23:00:23.869Z,27.40
2022-09-07T23:03:50.788Z,26.97
2022-09-07T23:07:27.530Z,26.98
2022-09-07T23:10:56.826Z,27.51
2022-09-07T23:14:27.938Z,27.42
2022-09-07T23:17:53.954Z,27.64
2022-09-07T23:21:21.616Z,27.62
2022-09-07T23:24:57.892Z,27.57
2022-09-07T23:28:24.349Z,27.46
2022-09-07T23:31:53.980Z,27.56
2022-09-07T23:35:16.503Z,28.08
2022-09-07T23:38:13.589Z,28.50
2022-09-07T23:41:40.006Z,28.41
2022-09-07T23:44:57.211Z,28.52
2022-09-07T23:48:24.900Z,28.90
2022-09-07T23:51:45.264Z,29.12
2022-09-07T23:55:13.805Z,29.42
2022-09-07T23:58:41.124Z,29.75
